Time;durP1;ratioP1;P1;durP2;ratioP2;P2;SDS_P1;SDS_P2;PMS_P1;PMS_P2;Temp;Humidity;BMP_temperature;BMP_pressure;BME280_temperature;BME280_humidity;BME280_pressure;Samples;Min_cycle;Max_cycle;Signal;HPM_P1;HPM_P2
2024/03/27 00:00:26;;;;;;;4.25;1.50;;;26.50;39.00;;;;;;5005052;28;20568;-52
2024/03/27 00:02:53;;;;;;;2.42;1.15;;;26.80;39.50;;;;;;5003594;28;20070;-49
2024/03/27 00:05:19;;;;;;;6.68;1.40;;;27.00;39.10;;;;;;5003513;28;20102;-51
2024/03/27 00:07:46;;;;;;;6.20;1.75;;;26.90;39.10;;;;;;4986198;28;20082;-48
2024/03/27 00:10:13;;;;;;;9.45;1.60;;;26.70;38.90;;;;;;5003314;28;20078;-47
2024/03/27 00:12:40;;;;;;;6.95;1.58;;;26.50;39.50;;;;;;5005467;28;20070;-48
2024/03/27 00:15:07;;;;;;;7.28;1.27;;;26.40;39.80;;;;;;5003404;28;20094;-48
2024/03/27 00:17:33;;;;;;;6.25;1.40;;;26.50;40.30;;;;;;5002536;28;20140;-50
2024/03/27 00:20:00;;;;;;;3.25;1.27;;;26.60;39.70;;;;;;5004440;28;20086;-51
2024/03/27 00:22:26;;;;;;;7.65;1.70;;;25.80;39.20;;;;;;5003554;28;20124;-50
2024/03/27 00:24:53;;;;;;;9.52;1.30;;;25.60;40.40;;;;;;5002496;28;20467;-49
2024/03/27 00:27:19;;;;;;;7.93;1.25;;;25.40;40.40;;;;;;5005638;28;20532;-47
2024/03/27 00:29:45;;;;;;;3.78;1.13;;;25.30;40.50;;;;;;5001686;28;20560;-52
2024/03/27 00:32:12;;;;;;;4.00;1.48;;;25.20;40.60;;;;;;4989412;28;20096;-49
2024/03/27 00:34:38;;;;;;;4.55;1.33;;;25.30;40.80;;;;;;5003321;28;20105;-49
2024/03/27 00:37:07;;;;;;;5.90;1.30;;;25.10;40.70;;;;;;5003470;28;20154;-48
2024/03/27 00:39:33;;;;;;;20.73;1.50;;;25.20;40.80;;;;;;5001238;28;20507;-50
2024/03/27 00:42:00;;;;;;;5.68;1.30;;;25.40;40.60;;;;;;5004033;28;20447;-47
2024/03/27 00:44:27;;;;;;;3.72;1.27;;;25.50;40.40;;;;;;5004086;28;20086;-50
2024/03/27 00:46:53;;;;;;;7.53;1.58;;;25.30;40.80;;;;;;5003634;28;20079;-48
2024/03/27 00:49:19;;;;;;;4.72;1.38;;;25.20;41.40;;;;;;5002726;28;20130;-49
2024/03/27 00:51:46;;;;;;;6.13;1.80;;;25.20;42.10;;;;;;5003444;28;20078;-48
2024/03/27 00:54:13;;;;;;;5.65;1.65;;;25.30;42.20;;;;;;5000322;28;20112;-49
2024/03/27 00:56:39;;;;;;;8.63;1.80;;;25.30;41.70;;;;;;5004029;28;20078;-48
2024/03/27 00:59:06;;;;;;;10.43;2.35;;;25.20;42.60;;;;;;5002945;28;20518;-52
2024/03/27 01:01:32;;;;;;;4.95;2.05;;;25.30;43.30;;;;;;5003734;28;20102;-47
2024/03/27 01:03:59;;;;;;;9.90;2.67;;;25.30;42.90;;;;;;5001994;28;20085;-51
2024/03/27 01:06:25;;;;;;;16.50;2.40;;;25.20;43.90;;;;;;5001627;28;20097;-51
2024/03/27 01:08:52;;;;;;;11.82;2.47;;;25.00;45.10;;;;;;5000966;28;20166;-47
2024/03/27 01:11:19;;;;;;;14.98;2.45;;;24.90;45.40;;;;;;4985032;28;20078;-44
2024/03/27 01:13:46;;;;;;;17.45;2.92;;;24.90;45.80;;;;;;5004536;28;20091;-47
2024/03/27 01:16:12;;;;;;;23.95;3.25;;;24.80;45.80;;;;;;4985380;28;20077;-44
2024/03/27 01:18:40;;;;;;;12.30;2.53;;;24.70;46.20;;;;;;5001738;28;20117;-45
2024/03/27 01:21:06;;;;;;;8.02;2.10;;;24.60;46.00;;;;;;5005346;28;20089;-44
2024/03/27 01:23:33;;;;;;;12.93;3.20;;;24.40;46.40;;;;;;5005752;28;20209;-47
2024/03/27 01:26:03;;;;;;;14.73;3.17;;;24.20;46.20;;;;;;4987243;28;20077;-49
2024/03/27 01:28:30;;;;;;;13.55;2.08;;;24.00;46.70;;;;;;5007292;28;20082;-48
2024/03/27 01:30:56;;;;;;;14.02;2.85;;;24.00;47.70;;;;;;5006746;28;20111;-48
2024/03/27 01:33:23;;;;;;;11.05;2.72;;;23.90;47.60;;;;;;5006590;28;20580;-50
2024/03/27 01:35:50;;;;;;;9.90;2.58;;;23.90;47.70;;;;;;5008651;28;20082;-48
2024/03/27 01:38:17;;;;;;;17.85;2.75;;;23.90;47.60;;;;;;5004591;28;20184;-52
2024/03/27 01:40:43;;;;;;;16.52;2.83;;;23.80;47.70;;;;;;5005783;28;20205;-46
2024/03/27 01:43:10;;;;;;;12.80;2.80;;;23.70;48.00;;;;;;5005467;28;20158;-48
2024/03/27 01:45:36;;;;;;;11.05;2.78;;;23.60;48.30;;;;;;5005835;28;20161;-48
2024/03/27 01:48:03;;;;;;;15.55;3.15;;;23.50;48.50;;;;;;4982536;28;20078;-47
2024/03/27 01:50:30;;;;;;;18.60;2.53;;;23.40;48.70;;;;;;5003361;28;20095;-50
2024/03/27 01:52:59;;;;;;;8.75;2.33;;;23.30;48.90;;;;;;5006350;28;20517;-50
2024/03/27 01:55:26;;;;;;;12.02;2.50;;;23.10;49.10;;;;;;5004015;28;20113;-48
2024/03/27 01:57:53;;;;;;;9.48;2.35;;;23.00;49.40;;;;;;5007103;28;20863;-53
2024/03/27 02:00:20;;;;;;;14.25;2.80;;;23.00;49.60;;;;;;5006429;28;20083;-62
2024/03/27 02:02:47;;;;;;;11.13;2.53;;;22.90;49.40;;;;;;5006578;28;20529;-53
2024/03/27 02:05:14;;;;;;;8.40;2.55;;;22.90;49.50;;;;;;4988153;28;20193;-61
2024/03/27 02:07:41;;;;;;;12.27;2.95;;;22.80;49.70;;;;;;5005526;28;20113;-59
2024/03/27 02:10:08;;;;;;;13.15;3.10;;;22.80;50.00;;;;;;5008481;28;20148;-59
2024/03/27 02:12:35;;;;;;;17.00;3.70;;;22.70;50.10;;;;;;5007210;28;20088;-58
2024/03/27 02:15:06;;;;;;;21.58;3.10;;;22.60;50.30;;;;;;5007497;28;20075;-57
2024/03/27 02:17:32;;;;;;;17.55;2.90;;;22.60;50.50;;;;;;5007789;28;20102;-58
2024/03/27 02:19:59;;;;;;;13.73;3.10;;;22.50;50.70;;;;;;5008307;28;20075;-55
2024/03/27 02:22:28;;;;;;;20.40;3.30;;;22.40;51.40;;;;;;4986762;28;20479;-59
2024/03/27 02:25:22;;;;;;;14.07;2.88;;;22.40;50.90;;;;;;5006643;28;20117;-56
2024/03/27 02:27:48;;;;;;;12.63;2.97;;;22.40;50.90;;;;;;5007661;28;20452;-61
2024/03/27 02:30:15;;;;;;;15.05;2.63;;;22.30;50.80;;;;;;5005266;28;20075;-59
2024/03/27 02:32:41;;;;;;;18.20;4.07;;;22.20;51.10;;;;;;5005473;28;20084;-59
2024/03/27 02:35:12;;;;;;;13.70;2.83;;;22.20;51.10;;;;;;5004617;28;20121;-64
2024/03/27 02:37:38;;;;;;;14.55;3.15;;;22.10;51.20;;;;;;5006932;28;20102;-61
2024/03/27 02:40:05;;;;;;;12.25;2.78;;;22.00;51.10;;;;;;5005391;28;20082;-62
2024/03/27 02:42:33;;;;;;;11.93;2.53;;;22.00;51.10;;;;;;4987665;28;20074;-61
2024/03/27 02:44:59;;;;;;;8.57;2.40;;;22.00;51.10;;;;;;5006905;28;20082;-65
2024/03/27 02:47:25;;;;;;;13.52;2.95;;;21.90;51.20;;;;;;5008965;28;20075;-63
2024/03/27 02:49:54;;;;;;;15.43;3.20;;;21.90;51.30;;;;;;5006121;28;20086;-61
2024/03/27 02:52:21;;;;;;;12.45;3.08;;;21.80;51.60;;;;;;4982805;28;20106;-63
2024/03/27 02:54:48;;;;;;;15.00;3.22;;;21.70;51.60;;;;;;4982779;28;20543;-62
2024/03/27 02:57:14;;;;;;;19.40;3.35;;;21.60;52.00;;;;;;5005882;28;20079;-61
2024/03/27 02:59:40;;;;;;;21.02;3.25;;;21.50;52.10;;;;;;5005542;28;20156;-61
2024/03/27 03:02:07;;;;;;;21.35;3.40;;;21.50;51.90;;;;;;5006334;28;20484;-60
2024/03/27 03:04:34;;;;;;;28.60;3.92;;;21.50;51.80;;;;;;5004567;28;20156;-58
2024/03/27 03:07:00;;;;;;;36.00;3.53;;;21.50;51.80;;;;;;5006061;28;20152;-62
2024/03/27 03:09:27;;;;;;;25.92;3.67;;;21.50;51.80;;;;;;5007530;28;20102;-60
2024/03/27 03:11:53;;;;;;;33.42;4.32;;;21.50;52.00;;;;;;5008045;28;20078;-60
2024/03/27 03:14:19;;;;;;;25.23;3.47;;;21.40;51.80;;;;;;5006277;28;20071;-59
2024/03/27 03:16:46;;;;;;;19.20;3.40;;;21.40;52.00;;;;;;5007485;28;20075;-60
2024/03/27 03:19:13;;;;;;;24.00;3.10;;;21.30;51.90;;;;;;5007206;28;20141;-58
2024/03/27 03:21:39;;;;;;;17.17;3.22;;;21.20;52.30;;;;;;5006083;28;20078;-59
2024/03/27 03:24:06;;;;;;;12.80;3.38;;;21.20;52.50;;;;;;5005511;28;20074;-59
2024/03/27 03:26:34;;;;;;;16.65;2.75;;;21.10;52.70;;;;;;5005838;28;20075;-64
2024/03/27 03:29:01;;;;;;;22.55;3.33;;;21.10;53.10;;;;;;5005728;28;20085;-60
2024/03/27 03:31:27;;;;;;;12.88;2.90;;;21.00;53.30;;;;;;5007741;28;20082;-62
2024/03/27 03:33:54;;;;;;;14.95;2.95;;;20.90;53.40;;;;;;5005553;28;20099;-62
2024/03/27 03:36:20;;;;;;;22.88;3.75;;;20.90;53.60;;;;;;5006875;28;20082;-56
2024/03/27 03:38:47;;;;;;;14.90;3.15;;;20.80;53.60;;;;;;4985779;28;20734;-56
2024/03/27 03:41:13;;;;;;;12.05;3.70;;;20.80;53.80;;;;;;5006730;28;20079;-60
2024/03/27 03:43:40;;;;;;;16.05;3.10;;;20.70;54.00;;;;;;5006996;28;20082;-58
2024/03/27 03:46:07;;;;;;;19.73;3.38;;;20.70;54.20;;;;;;5005944;28;20656;-59
2024/03/27 03:48:33;;;;;;;18.20;3.85;;;20.70;54.50;;;;;;5003878;28;20928;-59
2024/03/27 03:51:00;;;;;;;26.73;19.38;;;20.60;54.80;;;;;;5006670;28;20093;-58
2024/03/27 03:53:27;;;;;;;17.17;3.45;;;20.50;54.90;;;;;;5006131;28;20075;-60
2024/03/27 03:55:53;;;;;;;24.25;4.13;;;20.50;55.20;;;;;;5006077;28;20071;-60
2024/03/27 03:58:20;;;;;;;18.02;3.22;;;20.30;54.90;;;;;;5006410;28;20107;-60
2024/03/27 04:00:54;;;;;;;14.38;3.42;;;20.30;55.00;;;;;;5005892;28;20086;-61
2024/03/27 04:03:21;;;;;;;16.05;3.08;;;20.20;55.10;;;;;;5006967;28;20112;-59
2024/03/27 04:05:47;;;;;;;16.25;3.38;;;20.20;55.20;;;;;;5005651;28;20082;-62
2024/03/27 04:08:14;;;;;;;16.50;3.22;;;20.20;55.20;;;;;;5005816;28;20077;-61
2024/03/27 04:10:42;;;;;;;22.95;3.70;;;20.20;55.30;;;;;;5004370;28;20085;-61
2024/03/27 04:13:09;;;;;;;14.77;2.90;;;20.10;55.30;;;;;;5005957;28;20104;-64
2024/03/27 04:15:43;;;;;;;22.17;3.55;;;20.10;55.40;;;;;;5004659;28;20134;-63
2024/03/27 04:18:10;;;;;;;15.90;3.35;;;20.00;55.20;;;;;;5006182;28;20801;-64
2024/03/27 04:20:41;;;;;;;10.57;3.05;;;20.00;55.40;;;;;;5003688;28;20075;-63
2024/03/27 04:23:08;;;;;;;13.98;3.22;;;20.00;55.50;;;;;;5005384;28;20082;-63
2024/03/27 04:25:34;;;;;;;20.65;3.05;;;20.00;55.50;;;;;;4990619;28;20098;-51
2024/03/27 04:28:01;;;;;;;18.10;2.83;;;19.90;55.40;;;;;;5007781;28;20078;-54
2024/03/27 04:30:27;;;;;;;9.77;2.58;;;19.90;55.00;;;;;;5008351;28;20097;-53
2024/03/27 04:32:54;;;;;;;13.82;2.78;;;19.90;55.60;;;;;;5006268;28;20152;-54
2024/03/27 04:35:20;;;;;;;15.00;2.67;;;19.90;55.70;;;;;;5007294;28;20114;-55
2024/03/27 04:37:47;;;;;;;13.27;3.00;;;19.90;55.60;;;;;;5007803;28;20122;-58
2024/03/27 04:40:14;;;;;;;13.02;3.00;;;19.90;55.50;;;;;;5006232;28;20082;-52
2024/03/27 04:42:41;;;;;;;20.50;2.97;;;19.90;55.40;;;;;;5007252;28;20429;-51
2024/03/27 04:45:09;;;;;;;14.35;3.15;;;19.90;55.40;;;;;;5008163;28;20108;-52
2024/03/27 04:47:36;;;;;;;11.98;3.17;;;19.80;55.40;;;;;;5005957;28;20165;-52
2024/03/27 04:50:05;;;;;;;12.80;2.85;;;19.90;55.30;;;;;;5008571;28;20078;-56
2024/03/27 04:52:32;;;;;;;13.02;2.83;;;19.90;55.00;;;;;;5006730;28;20078;-52
2024/03/27 04:54:58;;;;;;;9.43;2.80;;;19.90;54.80;;;;;;5008147;28;20082;-53
2024/03/27 04:57:24;;;;;;;12.63;2.33;;;19.80;54.90;;;;;;5008979;28;20102;-49
2024/03/27 04:59:51;;;;;;;9.88;2.97;;;19.80;54.70;;;;;;5011820;28;20086;-54
2024/03/27 05:02:17;;;;;;;14.63;3.03;;;19.80;54.60;;;;;;5009208;28;20085;-55
2024/03/27 05:04:44;;;;;;;13.32;2.95;;;19.80;54.70;;;;;;5011740;28;20096;-54
2024/03/27 05:07:10;;;;;;;12.38;3.22;;;19.80;54.70;;;;;;5010863;28;20070;-54
2024/03/27 05:09:37;;;;;;;10.95;2.95;;;19.80;54.70;;;;;;5011450;28;20429;-55
2024/03/27 05:12:03;;;;;;;10.68;2.80;;;19.70;54.60;;;;;;5010495;28;20483;-52
2024/03/27 05:14:30;;;;;;;12.90;3.08;;;19.70;54.70;;;;;;5010636;28;20090;-56
2024/03/27 05:16:57;;;;;;;13.40;3.38;;;19.70;54.70;;;;;;5010841;28;20078;-53
2024/03/27 05:19:24;;;;;;;7.75;2.70;;;19.70;54.70;;;;;;5010161;28;20129;-55
2024/03/27 05:21:52;;;;;;;13.05;3.20;;;19.60;54.80;;;;;;5012535;28;20066;-53
2024/03/27 05:24:18;;;;;;;8.77;3.30;;;19.60;54.70;;;;;;5010764;28;20078;-55
2024/03/27 05:26:48;;;;;;;13.68;3.22;;;19.60;54.70;;;;;;5011108;28;20125;-56
2024/03/27 05:29:15;;;;;;;15.95;3.45;;;19.60;54.80;;;;;;5010096;28;20423;-52
2024/03/27 05:32:08;;;;;;;19.10;3.85;;;19.60;54.80;;;;;;5011146;28;20162;-53
2024/03/27 05:34:34;;;;;;;12.68;3.22;;;19.60;54.80;;;;;;4989803;28;20090;-52
2024/03/27 05:37:00;;;;;;;11.30;3.83;;;19.60;54.80;;;;;;5010894;28;20074;-54
2024/03/27 05:39:28;;;;;;;14.23;3.33;;;19.60;54.70;;;;;;5010660;28;20144;-52
2024/03/27 05:41:56;;;;;;;13.07;2.90;;;19.50;54.80;;;;;;5010720;28;20075;-54
2024/03/27 05:44:22;;;;;;;19.63;3.70;;;19.50;54.70;;;;;;4990833;28;20094;-47
2024/03/27 05:46:48;;;;;;;11.30;3.53;;;19.60;55.00;;;;;;4992401;28;20133;-51
2024/03/27 05:49:15;;;;;;;9.80;3.35;;;19.60;54.80;;;;;;5011543;28;20432;-50
2024/03/27 05:51:42;;;;;;;10.65;3.13;;;19.60;55.00;;;;;;5011663;28;21021;-52
2024/03/27 05:54:08;;;;;;;9.73;3.08;;;19.50;54.80;;;;;;5010842;28;20082;-55
2024/03/27 05:56:35;;;;;;;16.30;3.47;;;19.40;55.60;;;;;;5009280;28;20074;-51
2024/03/27 05:59:01;;;;;;;9.95;3.25;;;19.30;54.90;;;;;;5009446;28;20548;-53
2024/03/27 06:01:28;;;;;;;19.85;3.40;;;19.30;55.00;;;;;;5010157;28;20074;-52
2024/03/27 06:03:58;;;;;;;13.63;3.75;;;19.20;55.00;;;;;;5010901;28;20159;-54
2024/03/27 06:06:24;;;;;;;18.08;3.67;;;19.20;55.10;;;;;;5010912;28;20493;-52
2024/03/27 06:08:51;;;;;;;10.18;3.90;;;19.20;55.20;;;;;;5008116;28;20575;-50
2024/03/27 06:11:17;;;;;;;17.38;4.20;;;19.20;55.20;;;;;;5010121;28;20075;-55
2024/03/27 06:13:44;;;;;;;14.60;4.10;;;19.10;55.90;;;;;;4992158;28;20071;-51
2024/03/27 06:16:10;;;;;;;17.02;4.40;;;19.10;55.40;;;;;;5009863;28;20087;-51
2024/03/27 06:18:37;;;;;;;18.27;4.75;;;19.10;55.40;;;;;;4991622;28;20186;-51
2024/03/27 06:21:04;;;;;;;37.90;21.65;;;19.00;55.40;;;;;;5011003;28;20102;-53
2024/03/27 06:23:30;;;;;;;13.32;4.85;;;19.00;55.60;;;;;;5011108;28;20139;-52
2024/03/27 06:25:59;;;;;;;17.23;5.72;;;18.90;55.60;;;;;;5010658;28;20079;-52
2024/03/27 06:28:26;;;;;;;16.17;4.80;;;18.90;55.70;;;;;;4991769;28;20082;-51
2024/03/27 06:30:57;;;;;;;14.68;4.30;;;18.90;55.90;;;;;;5009385;28;20070;-53
2024/03/27 06:33:24;;;;;;;13.48;4.88;;;18.90;56.00;;;;;;4990208;28;20423;-52
2024/03/27 06:35:52;;;;;;;15.75;4.63;;;18.80;55.90;;;;;;5010300;28;20074;-54
2024/03/27 06:38:19;;;;;;;15.43;4.93;;;18.80;55.90;;;;;;5006413;28;20184;-51
2024/03/27 06:40:46;;;;;;;15.65;5.15;;;18.80;56.00;;;;;;5009494;28;20078;-50
2024/03/27 06:43:13;;;;;;;17.63;6.53;;;18.70;56.20;;;;;;5008985;28;20083;-53
2024/03/27 06:45:43;;;;;;;16.85;7.25;;;18.70;56.30;;;;;;5010121;28;20444;-51
2024/03/27 06:48:10;;;;;;;19.63;6.30;;;18.60;56.30;;;;;;5010558;28;20523;-52
2024/03/27 06:50:37;;;;;;;14.85;6.53;;;18.50;56.60;;;;;;5008980;28;20204;-54
2024/03/27 06:53:04;;;;;;;21.40;6.35;;;18.50;56.80;;;;;;5007887;28;20529;-51
2024/03/27 06:55:30;;;;;;;16.25;6.35;;;18.50;57.00;;;;;;5008033;28;20133;-53
2024/03/27 06:57:57;;;;;;;24.77;7.00;;;18.30;57.20;;;;;;5005781;28;21137;-48
2024/03/27 07:00:24;;;;;;;31.60;7.68;;;18.40;57.90;;;;;;4991138;28;20496;-51
2024/03/27 07:02:50;;;;;;;25.75;7.68;;;18.40;58.00;;;;;;5008162;28;20074;-52
2024/03/27 07:05:18;;;;;;;21.25;6.78;;;18.30;57.70;;;;;;5007951;28;20444;-53
2024/03/27 07:07:44;;;;;;;18.70;5.18;;;18.20;57.80;;;;;;4990274;28;20105;-54
2024/03/27 07:10:11;;;;;;;18.55;5.45;;;18.10;58.00;;;;;;5009693;28;20086;-57
2024/03/27 07:12:37;;;;;;;22.92;6.00;;;18.00;58.30;;;;;;5008459;28;20089;-51
2024/03/27 07:15:06;;;;;;;27.45;7.15;;;18.00;58.70;;;;;;4992449;28;20081;-54
2024/03/27 07:17:32;;;;;;;31.70;9.38;;;18.10;58.70;;;;;;4991781;28;20175;-53
2024/03/27 07:19:59;;;;;;;30.20;8.40;;;18.10;58.10;;;;;;5009119;28;20078;-51
2024/03/27 07:22:26;;;;;;;28.63;9.63;;;18.00;58.10;;;;;;5009407;28;20113;-52
2024/03/27 07:24:53;;;;;;;34.08;10.48;;;17.90;58.20;;;;;;5010384;28;20075;-55
2024/03/27 07:27:19;;;;;;;47.72;9.88;;;17.80;58.50;;;;;;5009186;28;20509;-53
2024/03/27 07:29:46;;;;;;;26.25;8.40;;;17.80;59.10;;;;;;5009127;28;20083;-53
2024/03/27 07:32:12;;;;;;;26.05;8.75;;;17.80;58.50;;;;;;5008593;28;20093;-53
2024/03/27 07:34:39;;;;;;;27.83;8.98;;;17.80;58.90;;;;;;5008238;28;20536;-54
2024/03/27 07:37:06;;;;;;;30.48;8.27;;;17.90;59.30;;;;;;5008755;28;20417;-53
2024/03/27 07:39:32;;;;;;;29.05;8.20;;;17.90;59.90;;;;;;5007974;28;20155;-54
2024/03/27 07:41:58;;;;;;;34.20;9.60;;;17.70;59.40;;;;;;5009722;28;20093;-52
2024/03/27 07:44:27;;;;;;;29.48;8.68;;;17.70;59.70;;;;;;5007291;28;20075;-54
2024/03/27 07:46:53;;;;;;;29.80;8.13;;;17.80;59.70;;;;;;5009510;28;20075;-51
2024/03/27 07:49:20;;;;;;;30.67;9.32;;;17.70;60.50;;;;;;5008789;28;20125;-52
2024/03/27 07:51:46;;;;;;;35.83;10.07;;;17.50;60.40;;;;;;5008248;28;20166;-54
2024/03/27 07:54:12;;;;;;;28.33;10.50;;;17.40;60.00;;;;;;5006072;28;20121;-51
2024/03/27 07:56:44;;;;;;;39.58;10.02;;;17.20;60.30;;;;;;5006160;28;20125;-54
2024/03/27 07:59:13;;;;;;;29.98;9.35;;;17.20;60.20;;;;;;5007662;28;20157;-54
2024/03/27 08:01:40;;;;;;;38.80;10.30;;;17.20;60.70;;;;;;4991167;28;20086;-55
2024/03/27 08:04:06;;;;;;;34.80;10.07;;;17.20;60.90;;;;;;5008692;28;20082;-52
2024/03/27 08:06:33;;;;;;;70.82;25.65;;;17.20;61.40;;;;;;5008060;28;20079;-53
2024/03/27 08:08:59;;;;;;;44.67;10.73;;;17.20;61.20;;;;;;4986117;28;20079;-52
2024/03/27 08:11:25;;;;;;;37.83;9.43;;;17.20;60.20;;;;;;5007500;28;20071;-53
2024/03/27 08:13:52;;;;;;;40.33;10.18;;;17.10;61.20;;;;;;5008672;28;20074;-56
2024/03/27 08:16:19;;;;;;;33.38;8.73;;;17.10;61.00;;;;;;5008887;28;20113;-54
2024/03/27 08:18:46;;;;;;;27.50;9.18;;;17.00;60.90;;;;;;5007690;28;20587;-53
2024/03/27 08:21:13;;;;;;;32.92;10.90;;;17.00;60.90;;;;;;5007122;28;21016;-53
2024/03/27 08:23:40;;;;;;;27.85;9.60;;;17.00;60.70;;;;;;5006351;28;20097;-51
2024/03/27 08:26:06;;;;;;;22.50;9.13;;;17.10;61.20;;;;;;5007738;28;20086;-53
2024/03/27 08:28:33;;;;;;;37.17;8.98;;;17.10;60.50;;;;;;5006666;28;20174;-53
2024/03/27 08:30:59;;;;;;;33.47;8.25;;;17.10;60.80;;;;;;5007195;28;20086;-54
2024/03/27 08:33:26;;;;;;;33.35;8.05;;;17.20;61.00;;;;;;5007176;28;20106;-50
2024/03/27 08:35:53;;;;;;;38.72;7.93;;;17.10;61.30;;;;;;5008424;28;20074;-53
2024/03/27 08:38:20;;;;;;;31.58;7.35;;;17.00;61.70;;;;;;5006319;28;20117;-54
2024/03/27 08:40:53;;;;;;;25.67;7.07;;;16.80;62.00;;;;;;4990899;28;20213;-50
2024/03/27 08:43:20;;;;;;;25.52;7.38;;;16.80;62.20;;;;;;5009162;28;20536;-52
2024/03/27 08:45:46;;;;;;;24.60;7.00;;;16.80;63.00;;;;;;5007781;28;20108;-51
2024/03/27 08:48:13;;;;;;;22.77;7.22;;;16.80;63.00;;;;;;5006883;28;20451;-54
2024/03/27 08:50:41;;;;;;;20.38;7.18;;;16.80;63.10;;;;;;5006195;28;20532;-53
2024/03/27 08:53:07;;;;;;;21.17;6.00;;;16.80;62.90;;;;;;5006649;28;20105;-54
2024/03/27 08:55:41;;;;;;;18.27;6.20;;;16.90;63.40;;;;;;5006361;28;20070;-51
2024/03/27 08:58:08;;;;;;;23.27;6.57;;;17.00;63.00;;;;;;5007903;28;20110;-54
2024/03/27 09:00:35;;;;;;;20.95;6.32;;;16.90;63.50;;;;;;5007354;28;20082;-55
2024/03/27 09:03:02;;;;;;;22.33;6.78;;;16.70;63.80;;;;;;5007331;28;20269;-52
2024/03/27 09:05:29;;;;;;;21.35;6.57;;;16.50;64.30;;;;;;5004449;28;20089;-54
2024/03/27 09:07:55;;;;;;;28.40;9.40;;;16.50;64.50;;;;;;5001525;28;20079;-53
2024/03/27 09:10:22;;;;;;;29.60;11.20;;;16.50;64.80;;;;;;5007160;28;20079;-53
2024/03/27 09:12:48;;;;;;;31.75;9.90;;;16.50;64.40;;;;;;5007608;28;20098;-55
2024/03/27 09:15:15;;;;;;;34.03;8.50;;;16.50;64.30;;;;;;5006032;28;20148;-53
2024/03/27 09:17:42;;;;;;;24.33;7.03;;;16.60;64.30;;;;;;5007816;28;20534;-53
2024/03/27 09:20:09;;;;;;;29.10;7.00;;;16.40;64.10;;;;;;5006998;28;20463;-52
2024/03/27 09:22:36;;;;;;;19.73;6.65;;;16.40;64.60;;;;;;5007139;28;20180;-53
2024/03/27 09:25:04;;;;;;;25.48;6.75;;;16.50;64.70;;;;;;5008005;28;20074;-53
2024/03/27 09:27:33;;;;;;;31.92;6.47;;;16.40;64.40;;;;;;4989509;28;20075;-51
2024/03/27 09:29:59;;;;;;;26.73;6.68;;;16.50;65.20;;;;;;5008346;28;20078;-54
2024/03/27 09:32:26;;;;;;;38.17;7.85;;;16.40;64.60;;;;;;5007492;28;20078;-51
2024/03/27 09:34:54;;;;;;;44.03;8.98;;;16.30;64.30;;;;;;5008017;28;20078;-53
2024/03/27 09:37:21;;;;;;;33.30;8.87;;;16.30;64.40;;;;;;5006763;28;20102;-54
2024/03/27 09:39:47;;;;;;;29.33;8.80;;;16.40;65.00;;;;;;5008228;28;20106;-52
2024/03/27 09:42:15;;;;;;;29.48;9.23;;;16.30;64.50;;;;;;5007887;28;20075;-54
2024/03/27 09:44:42;;;;;;;30.77;8.63;;;16.20;64.60;;;;;;5010487;28;20075;-50
2024/03/27 09:47:10;;;;;;;30.27;8.40;;;16.10;65.70;;;;;;4992838;28;20505;-50
2024/03/27 09:49:38;;;;;;;32.53;9.23;;;16.10;65.80;;;;;;4991042;28;20082;-50
2024/03/27 09:52:06;;;;;;;34.78;9.40;;;16.00;65.70;;;;;;5009755;28;20165;-54
2024/03/27 09:54:33;;;;;;;29.40;8.65;;;16.00;65.50;;;;;;5011461;28;20078;-51
2024/03/27 09:57:00;;;;;;;32.67;9.80;;;16.00;65.80;;;;;;4992235;28;20908;-50
2024/03/27 09:59:26;;;;;;;38.17;9.23;;;16.00;65.80;;;;;;5011405;28;20102;-53
2024/03/27 10:02:05;;;;;;;41.17;9.95;;;15.90;66.00;;;;;;5010379;28;20608;-52
2024/03/27 10:04:33;;;;;;;30.35;8.65;;;15.80;66.50;;;;;;4993243;28;20085;-54
2024/03/27 10:06:59;;;;;;;37.90;8.82;;;15.80;67.30;;;;;;5010135;28;20129;-51
2024/03/27 10:09:26;;;;;;;33.00;9.25;;;15.70;67.40;;;;;;5010636;28;20141;-53
2024/03/27 10:11:52;;;;;;;33.35;9.82;;;15.70;66.80;;;;;;5009976;28;20197;-53
2024/03/27 10:14:19;;;;;;;41.42;9.80;;;15.70;67.10;;;;;;5010799;28;20477;-52
2024/03/27 10:16:45;;;;;;;36.40;10.45;;;15.70;67.00;;;;;;4993055;28;20137;-52
2024/03/27 10:19:12;;;;;;;42.53;10.32;;;15.60;66.80;;;;;;5009203;28;20193;-52
2024/03/27 10:21:38;;;;;;;36.80;8.75;;;15.50;67.50;;;;;;5009647;28;20554;-51
2024/03/27 10:24:09;;;;;;;38.42;10.25;;;15.60;67.90;;;;;;5010617;28;20089;-52
2024/03/27 10:26:35;;;;;;;30.25;10.32;;;15.80;67.30;;;;;;5008315;28;20129;-51
2024/03/27 10:29:02;;;;;;;43.72;10.70;;;15.80;66.60;;;;;;5010662;28;20083;-54
2024/03/27 10:31:28;;;;;;;25.42;9.13;;;15.70;66.40;;;;;;5011050;28;20066;-54
2024/03/27 10:33:55;;;;;;;32.00;10.70;;;15.70;67.40;;;;;;5009952;28;20085;-54
2024/03/27 10:36:26;;;;;;;42.13;10.77;;;15.50;67.40;;;;;;5009564;28;20546;-55
2024/03/27 10:38:56;;;;;;;40.63;10.27;;;15.40;68.10;;;;;;5010151;28;20118;-53
2024/03/27 10:41:26;;;;;;;36.47;10.57;;;15.40;68.10;;;;;;5010112;28;20125;-53
2024/03/27 10:43:57;;;;;;;45.35;11.82;;;15.20;68.50;;;;;;5010457;28;20071;-53
2024/03/27 10:46:24;;;;;;;38.35;11.00;;;15.20;68.80;;;;;;5010261;28;20074;-52
2024/03/27 10:48:53;;;;;;;35.58;9.85;;;15.10;68.80;;;;;;5008052;28;20161;-51
2024/03/27 10:51:20;;;;;;;41.78;10.77;;;15.30;69.30;;;;;;5008868;28;20140;-50
2024/03/27 10:53:47;;;;;;;32.63;11.07;;;15.40;69.70;;;;;;5009526;28;20505;-52
2024/03/27 10:56:15;;;;;;;34.03;11.70;;;15.20;69.50;;;;;;5009041;28;20074;-50
2024/03/27 10:58:43;;;;;;;46.35;11.07;;;15.30;70.00;;;;;;5008816;28;20098;-51
2024/03/27 11:01:12;;;;;;;33.33;10.73;;;15.30;70.00;;;;;;5010473;28;20165;-52
2024/03/27 11:03:41;;;;;;;40.92;11.77;;;15.20;70.50;;;;;;4991449;28;20177;-53
2024/03/27 11:06:14;;;;;;;38.85;12.25;;;15.20;71.30;;;;;;5009712;28;20078;-50
2024/03/27 11:08:42;;;;;;;50.35;12.60;;;15.20;71.00;;;;;;5007747;28;20102;-51
2024/03/27 11:11:14;;;;;;;38.28;11.25;;;15.00;71.40;;;;;;5010245;28;20074;-51
2024/03/27 11:13:51;;;;;;;38.10;12.85;;;15.00;72.50;;;;;;5009538;28;20161;-53
2024/03/27 11:16:22;;;;;;;36.63;13.40;;;14.90;73.60;;;;;;5009734;28;20436;-49
2024/03/27 11:18:52;;;;;;;42.38;14.00;;;15.00;73.80;;;;;;4992181;28;20507;-51
2024/03/27 11:21:18;;;;;;;45.20;14.40;;;14.90;74.10;;;;;;5010427;28;20075;-50
2024/03/27 11:23:50;;;;;;;48.00;14.80;;;14.80;74.80;;;;;;5009403;28;20074;-54
2024/03/27 11:26:29;;;;;;;45.38;16.33;;;14.90;75.50;;;;;;5009656;28;20074;-53
2024/03/27 11:28:56;;;;;;;55.30;18.13;;;14.80;75.70;;;;;;5009310;28;20152;-53
2024/03/27 11:31:22;;;;;;;;;;;14.90;76.00;;;;;;5008882;28;20067;-52
2024/03/27 11:33:50;;;;;;;71.03;25.38;;;14.90;75.90;;;;;;5007876;28;19957;-53
2024/03/27 11:36:26;;;;;;;68.93;29.38;;;14.80;77.10;;;;;;5009435;28;20075;-52
2024/03/27 11:38:53;;;;;;;74.20;31.92;;;14.80;78.70;;;;;;4990665;28;20142;-51
2024/03/27 11:41:19;;;;;;;70.85;32.28;;;14.70;79.40;;;;;;5009936;28;20074;-53
2024/03/27 11:43:45;;;;;;;;;;;14.80;80.30;;;;;;5007071;28;20082;-53
2024/03/27 11:46:12;;;;;;;72.90;31.50;;;14.70;81.40;;;;;;5009311;28;20041;-53
2024/03/27 11:48:38;;;;;;;72.55;33.58;;;14.80;82.40;;;;;;5008360;28;20085;-51
2024/03/27 11:51:06;;;;;;;63.85;32.90;;;14.80;82.30;;;;;;5009642;28;20079;-53
2024/03/27 11:53:32;;;;;;;69.45;34.20;;;14.80;83.20;;;;;;4990518;28;20070;-53
2024/03/27 11:55:59;;;;;;;73.68;33.03;;;14.60;83.30;;;;;;5008018;28;20078;-55
2024/03/27 11:58:25;;;;;;;76.32;32.30;;;14.60;84.90;;;;;;5008097;28;20125;-51
2024/03/27 12:00:52;;;;;;;74.28;31.77;;;14.50;86.20;;;;;;5007582;28;20129;-51
2024/03/27 12:03:18;;;;;;;62.63;30.75;;;14.60;87.40;;;;;;5008135;28;20070;-53
2024/03/27 12:05:45;;;;;;;61.53;30.77;;;14.60;87.70;;;;;;5009234;28;20075;-52
2024/03/27 12:08:11;;;;;;;59.17;28.85;;;14.70;88.50;;;;;;5006604;28;20129;-54
2024/03/27 12:10:42;;;;;;;56.40;25.38;;;14.60;89.50;;;;;;5008503;28;20089;-51
2024/03/27 12:13:09;;;;;;;58.17;25.08;;;14.60;90.30;;;;;;5008176;28;20579;-52
2024/03/27 12:15:35;;;;;;;55.53;24.55;;;14.60;90.70;;;;;;5007155;28;20070;-52
2024/03/27 12:18:04;;;;;;;57.17;23.55;;;14.60;90.80;;;;;;5008934;28;20106;-52
2024/03/27 12:20:33;;;;;;;51.47;22.50;;;14.50;91.20;;;;;;5009197;28;20071;-52
2024/03/27 12:23:01;;;;;;;56.38;22.85;;;14.50;91.80;;;;;;5007250;28;20106;-52
2024/03/27 12:25:31;;;;;;;50.97;20.95;;;14.50;92.10;;;;;;5005397;28;20074;-53
2024/03/27 12:28:04;;;;;;;53.10;20.98;;;14.30;92.50;;;;;;5008761;28;20078;-54
2024/03/27 12:30:31;;;;;;;49.35;18.98;;;14.30;93.10;;;;;;5007834;28;20102;-53
2024/03/27 12:32:58;;;;;;;49.10;18.30;;;14.30;93.70;;;;;;5008176;28;20082;-53
2024/03/27 12:35:25;;;;;;;47.90;18.55;;;14.30;94.00;;;;;;5007438;28;20081;-51